Time;durP1;ratioP1;P1;durP2;ratioP2;P2;SDS_P1;SDS_P2;PMS_P1;PMS_P2;Temp;Humidity;BMP_temperature;BMP_pressure;BME280_temperature;BME280_humidity;BME280_pressure;Samples;Min_cycle;Max_cycle;Signal;HPM_P1;HPM_P2
2023/02/07 00:00:34;;;;;;;29.60;27.30;;;;;;;;;;5094939;28;20679;-78
2023/02/07 00:03:01;;;;;;;28.27;26.17;;;;;;;;;;5094341;28;20211;-77
2023/02/07 00:05:28;;;;;;;28.10;26.05;;;;;;;;;;5094567;28;20227;-78
2023/02/07 00:07:57;;;;;;;29.60;27.20;;;;;;;;;;5094811;28;20233;-79
2023/02/07 00:10:24;;;;;;;30.00;27.45;;;;;;;;;;5095126;28;20549;-78
2023/02/07 00:12:51;;;;;;;30.08;27.42;;;;;;;;;;5094413;28;20214;-79
2023/02/07 00:15:18;;;;;;;29.80;27.50;;;;;;;;;;5094729;28;20228;-78
2023/02/07 00:17:45;;;;;;;29.88;27.48;;;;;;;;;;5094786;28;20210;-78
2023/02/07 00:20:13;;;;;;;29.48;27.00;;;;;;;;;;5094175;28;20274;-78
2023/02/07 00:22:39;;;;;;;30.00;27.60;;;;;;;;;;5094282;28;20214;-78
2023/02/07 00:25:08;;;;;;;30.13;27.80;;;;;;;;;;5094162;28;20781;-79
2023/02/07 00:27:35;;;;;;;30.10;27.40;;;;;;;;;;5094578;28;20200;-79
2023/02/07 00:30:02;;;;;;;30.13;27.40;;;;;;;;;;5094692;28;20205;-78
2023/02/07 00:32:31;;;;;;;28.98;26.42;;;;;;;;;;5094182;28;20199;-78
2023/02/07 00:34:58;;;;;;;27.60;25.50;;;;;;;;;;5094058;28;20296;-78
2023/02/07 00:37:25;;;;;;;29.63;27.45;;;;;;;;;;5094559;28;20188;-79
2023/02/07 00:39:52;;;;;;;30.63;28.17;;;;;;;;;;5094093;28;20627;-79
2023/02/07 00:42:20;;;;;;;27.95;25.85;;;;;;;;;;5093948;28;20558;-79
2023/02/07 00:44:47;;;;;;;27.92;25.92;;;;;;;;;;5094312;28;20232;-79
2023/02/07 00:47:14;;;;;;;29.83;27.15;;;;;;;;;;5093705;28;20203;-79
2023/02/07 00:49:41;;;;;;;28.30;26.10;;;;;;;;;;5094278;28;20201;-79
2023/02/07 00:52:08;;;;;;;29.05;26.85;;;;;;;;;;5093863;28;20606;-79
2023/02/07 00:54:36;;;;;;;29.88;27.38;;;;;;;;;;5094189;28;20261;-79
2023/02/07 00:57:04;;;;;;;29.05;27.05;;;;;;;;;;5093933;28;20657;-78
2023/02/07 00:59:32;;;;;;;26.90;25.02;;;;;;;;;;5094396;28;20582;-78
2023/02/07 01:01:59;;;;;;;27.55;25.42;;;;;;;;;;5093578;28;20261;-79
2023/02/07 01:04:26;;;;;;;29.15;26.60;;;;;;;;;;5093489;28;20281;-79
2023/02/07 01:06:53;;;;;;;26.50;24.60;;;;;;;;;;5092765;28;20211;-78
2023/02/07 01:09:20;;;;;;;27.27;25.20;;;;;;;;;;5094068;28;20269;-78
2023/02/07 01:11:47;;;;;;;27.10;25.20;;;;;;;;;;5093497;28;20206;-79
2023/02/07 01:14:15;;;;;;;27.58;25.73;;;;;;;;;;5094128;28;20199;-78
2023/02/07 01:16:43;;;;;;;27.30;25.20;;;;;;;;;;5093720;28;20219;-79
2023/02/07 01:19:11;;;;;;;27.77;25.77;;;;;;;;;;5093909;28;20629;-79
2023/02/07 01:21:38;;;;;;;28.80;26.65;;;;;;;;;;5093511;28;20210;-79
2023/02/07 01:24:05;;;;;;;28.45;25.75;;;;;;;;;;5094119;28;20271;-79
2023/02/07 01:26:32;;;;;;;27.33;25.17;;;;;;;;;;5093194;28;20228;-78
2023/02/07 01:29:01;;;;;;;26.77;24.85;;;;;;;;;;5093516;28;20238;-77
2023/02/07 01:31:28;;;;;;;28.02;25.70;;;;;;;;;;5093105;28;20199;-78
2023/02/07 01:33:57;;;;;;;26.90;25.10;;;;;;;;;;5093928;28;20615;-79
2023/02/07 01:36:24;;;;;;;27.17;25.27;;;;;;;;;;5093829;28;20219;-78
2023/02/07 01:38:52;;;;;;;27.50;25.45;;;;;;;;;;5093897;28;20268;-78
2023/02/07 01:41:19;;;;;;;25.63;23.83;;;;;;;;;;5093256;28;20205;-79
2023/02/07 01:43:57;;;;;;;25.63;23.63;;;;;;;;;;5093828;28;20218;-78
2023/02/07 01:46:24;;;;;;;25.60;23.63;;;;;;;;;;5093042;28;20269;-79
2023/02/07 01:48:54;;;;;;;28.10;25.85;;;;;;;;;;5093832;28;20672;-78
2023/02/07 01:51:23;;;;;;;25.75;24.05;;;;;;;;;;5093242;28;20653;-78
2023/02/07 01:53:50;;;;;;;25.77;23.83;;;;;;;;;;5093787;28;20262;-78
2023/02/07 01:56:17;;;;;;;24.75;22.85;;;;;;;;;;5092752;28;20222;-79
2023/02/07 01:58:44;;;;;;;25.98;24.17;;;;;;;;;;5093538;28;20219;-78
2023/02/07 02:01:16;;;;;;;26.38;24.58;;;;;;;;;;5093699;28;20203;-79
2023/02/07 02:03:45;;;;;;;25.30;23.70;;;;;;;;;;5093633;28;20214;-79
2023/02/07 02:06:13;;;;;;;23.70;22.30;;;;;;;;;;5093387;28;20233;-79
2023/02/07 02:08:41;;;;;;;25.60;23.67;;;;;;;;;;5093312;28;20205;-79
2023/02/07 02:11:13;;;;;;;24.13;22.42;;;;;;;;;;5092921;28;20204;-78
2023/02/07 02:13:45;;;;;;;24.38;22.67;;;;;;;;;;5093264;28;20202;-79
2023/02/07 02:16:17;;;;;;;24.92;23.23;;;;;;;;;;5093345;28;20223;-79
2023/02/07 02:18:55;;;;;;;24.08;22.60;;;;;;;;;;5095341;28;20207;-77
2023/02/07 02:21:37;;;;;;;23.90;22.27;;;;;;;;;;5096192;28;20218;-79
2023/02/07 02:24:19;;;;;;;23.92;22.33;;;;;;;;;;5097179;28;20187;-79
2023/02/07 02:26:53;;;;;;;24.40;22.90;;;;;;;;;;5097074;28;20192;-79
2023/02/07 02:29:34;;;;;;;23.25;21.75;;;;;;;;;;5096712;28;20651;-79
2023/02/07 02:32:21;;;;;;;24.48;22.63;;;;;;;;;;5096681;28;20196;-79
2023/02/07 02:34:52;;;;;;;24.17;22.70;;;;;;;;;;5096525;28;20286;-79
2023/02/07 02:37:23;;;;;;;24.20;22.67;;;;;;;;;;5097167;28;20238;-79
2023/02/07 02:39:53;;;;;;;24.65;23.00;;;;;;;;;;5096239;28;20226;-78
2023/02/07 02:42:25;;;;;;;24.88;23.27;;;;;;;;;;5096291;28;20206;-79
2023/02/07 02:44:54;;;;;;;24.38;22.85;;;;;;;;;;5097467;28;20226;-79
2023/02/07 02:47:21;;;;;;;24.60;22.90;;;;;;;;;;5096115;28;20610;-78
2023/02/07 02:49:50;;;;;;;23.83;22.25;;;;;;;;;;5097601;28;20244;-86
2023/02/07 02:52:17;;;;;;;23.17;21.77;;;;;;;;;;5099959;28;20273;-81
2023/02/07 02:54:44;;;;;;;23.85;22.45;;;;;;;;;;5099491;28;20229;-82
2023/02/07 02:57:20;;;;;;;23.70;22.33;;;;;;;;;;5099205;28;20210;-82
2023/02/07 03:00:05;;;;;;;24.13;22.52;;;;;;;;;;5098941;28;20264;-82
2023/02/07 03:02:36;;;;;;;23.70;22.20;;;;;;;;;;5098883;28;20294;-82
2023/02/07 03:05:10;;;;;;;24.83;23.23;;;;;;;;;;5098571;28;20273;-82
2023/02/07 03:07:43;;;;;;;22.17;20.67;;;;;;;;;;5099746;28;20187;-82
2023/02/07 03:10:14;;;;;;;23.65;22.15;;;;;;;;;;5099363;28;20228;-82
2023/02/07 03:12:44;;;;;;;22.45;21.00;;;;;;;;;;5098335;28;20207;-82
2023/02/07 03:15:15;;;;;;;23.60;22.10;;;;;;;;;;5098389;28;20227;-83
2023/02/07 03:17:45;;;;;;;24.80;23.10;;;;;;;;;;5098726;28;20250;-82
2023/02/07 03:20:18;;;;;;;24.25;22.67;;;;;;;;;;5098576;28;20443;-82
2023/02/07 03:22:46;;;;;;;23.55;22.15;;;;;;;;;;5098299;28;20687;-82
2023/02/07 03:25:16;;;;;;;23.02;21.63;;;;;;;;;;5098831;28;20249;-82
2023/02/07 03:27:43;;;;;;;23.70;22.20;;;;;;;;;;5098743;28;20200;-82
2023/02/07 03:30:12;;;;;;;24.25;22.75;;;;;;;;;;5098183;28;20200;-82
2023/02/07 03:32:40;;;;;;;25.35;23.63;;;;;;;;;;5098355;28;20203;-82
2023/02/07 03:35:11;;;;;;;24.98;23.35;;;;;;;;;;5097911;28;20272;-82
2023/02/07 03:37:41;;;;;;;24.85;23.25;;;;;;;;;;5098303;28;20591;-82
2023/02/07 03:40:09;;;;;;;24.80;23.25;;;;;;;;;;5098807;28;20265;-82
2023/02/07 03:42:38;;;;;;;24.73;23.00;;;;;;;;;;5097573;28;20234;-82
2023/02/07 03:45:06;;;;;;;25.90;24.10;;;;;;;;;;5098250;28;20224;-81
2023/02/07 03:47:33;;;;;;;25.45;23.85;;;;;;;;;;5098729;28;20202;-82
2023/02/07 03:50:00;;;;;;;25.55;23.85;;;;;;;;;;5097053;28;20673;-82
2023/02/07 03:52:27;;;;;;;25.08;23.58;;;;;;;;;;5097906;28;20199;-82
2023/02/07 03:54:56;;;;;;;24.38;22.65;;;;;;;;;;5098115;28;20281;-81
2023/02/07 03:57:23;;;;;;;25.70;24.00;;;;;;;;;;5098083;28;20203;-81
2023/02/07 03:59:50;;;;;;;26.15;24.35;;;;;;;;;;5098085;28;20218;-82
2023/02/07 04:02:17;;;;;;;24.77;23.10;;;;;;;;;;5097813;28;20558;-82
2023/02/07 04:04:44;;;;;;;25.08;23.48;;;;;;;;;;5097081;28;20224;-82
2023/02/07 04:07:12;;;;;;;24.88;23.38;;;;;;;;;;5097717;28;20205;-82
2023/02/07 04:09:39;;;;;;;25.20;23.35;;;;;;;;;;5097590;28;20222;-82
2023/02/07 04:12:08;;;;;;;25.98;24.27;;;;;;;;;;5096881;28;20706;-82
2023/02/07 04:14:35;;;;;;;26.25;24.38;;;;;;;;;;5097510;28;20626;-82
2023/02/07 04:17:02;;;;;;;26.30;24.50;;;;;;;;;;5097553;28;20210;-82
2023/02/07 04:19:29;;;;;;;25.90;24.10;;;;;;;;;;5097578;28;20264;-82
2023/02/07 04:21:56;;;;;;;26.20;24.48;;;;;;;;;;5097440;28;20253;-82
2023/02/07 04:24:23;;;;;;;26.13;24.42;;;;;;;;;;5097925;28;20676;-82
2023/02/07 04:26:50;;;;;;;27.00;25.10;;;;;;;;;;5097605;28;20256;-82
2023/02/07 04:29:18;;;;;;;25.73;23.98;;;;;;;;;;5097570;28;20198;-83
2023/02/07 04:31:45;;;;;;;27.92;25.85;;;;;;;;;;5097461;28;20198;-82
2023/02/07 04:34:12;;;;;;;26.70;24.90;;;;;;;;;;5097081;28;20678;-82
2023/02/07 04:36:39;;;;;;;27.33;25.52;;;;;;;;;;5097479;28;20710;-82
2023/02/07 04:39:06;;;;;;;26.95;24.92;;;;;;;;;;5097231;28;20207;-82
2023/02/07 04:41:33;;;;;;;26.25;24.48;;;;;;;;;;5096446;28;20202;-82
2023/02/07 04:44:00;;;;;;;27.15;24.83;;;;;;;;;;5097179;28;20256;-81
2023/02/07 04:46:29;;;;;;;26.90;25.00;;;;;;;;;;5096916;28;20283;-82
2023/02/07 04:48:56;;;;;;;27.85;25.38;;;;;;;;;;5097080;28;20602;-82
2023/02/07 04:51:23;;;;;;;27.48;25.38;;;;;;;;;;5096292;28;20210;-83
2023/02/07 04:53:51;;;;;;;27.33;25.40;;;;;;;;;;5096890;28;20621;-82
2023/02/07 04:56:18;;;;;;;28.05;26.05;;;;;;;;;;5096495;28;20223;-82
2023/02/07 04:58:45;;;;;;;27.35;25.40;;;;;;;;;;5096903;28;20203;-81
2023/02/07 05:01:12;;;;;;;29.17;26.67;;;;;;;;;;5096460;28;20226;-82
2023/02/07 05:03:40;;;;;;;27.60;25.65;;;;;;;;;;5096352;28;20214;-81
2023/02/07 05:06:07;;;;;;;28.50;26.33;;;;;;;;;;5097179;28;20227;-82
2023/02/07 05:08:35;;;;;;;27.88;25.85;;;;;;;;;;5096669;28;20251;-82
2023/02/07 05:11:02;;;;;;;28.70;26.70;;;;;;;;;;5096698;28;20269;-82
2023/02/07 05:13:29;;;;;;;27.95;25.98;;;;;;;;;;5095844;28;20233;-82
2023/02/07 05:15:56;;;;;;;27.55;25.65;;;;;;;;;;5096897;28;20270;-82
2023/02/07 05:18:24;;;;;;;27.67;25.63;;;;;;;;;;5096518;28;20260;-82
2023/02/07 05:20:53;;;;;;;28.25;26.25;;;;;;;;;;5096719;28;20222;-82
2023/02/07 05:23:20;;;;;;;28.27;26.10;;;;;;;;;;5096047;28;20244;-82
2023/02/07 05:25:48;;;;;;;30.02;27.83;;;;;;;;;;5096868;28;20222;-82
2023/02/07 05:28:15;;;;;;;29.10;26.90;;;;;;;;;;5095927;28;20213;-82
2023/02/07 05:30:42;;;;;;;27.30;25.40;;;;;;;;;;5096545;28;20199;-82
2023/02/07 05:33:09;;;;;;;28.25;26.15;;;;;;;;;;5096333;28;20276;-82
2023/02/07 05:35:37;;;;;;;27.92;25.80;;;;;;;;;;5096028;28;20341;-82
2023/02/07 05:38:06;;;;;;;29.48;27.27;;;;;;;;;;5096591;28;20252;-82
2023/02/07 05:40:34;;;;;;;27.88;25.70;;;;;;;;;;5096108;28;20218;-83
2023/02/07 05:43:01;;;;;;;28.77;26.73;;;;;;;;;;5095881;28;20209;-82
2023/02/07 05:45:28;;;;;;;27.63;25.63;;;;;;;;;;5095842;28;20223;-82
2023/02/07 05:47:55;;;;;;;28.52;26.17;;;;;;;;;;5095665;28;20726;-81
2023/02/07 05:50:22;;;;;;;27.73;25.65;;;;;;;;;;5095807;28;20253;-82
2023/02/07 05:52:49;;;;;;;30.25;27.63;;;;;;;;;;5096188;28;20239;-82
2023/02/07 05:55:17;;;;;;;29.00;26.92;;;;;;;;;;5099857;28;20222;-82
2023/02/07 05:57:45;;;;;;;27.92;25.65;;;;;;;;;;5099932;28;20203;-82
2023/02/07 06:00:14;;;;;;;29.13;26.95;;;;;;;;;;5099581;28;20226;-82
2023/02/07 06:02:41;;;;;;;30.02;27.77;;;;;;;;;;5099266;28;20217;-82
2023/02/07 06:05:09;;;;;;;29.08;26.98;;;;;;;;;;5099540;28;20271;-81
2023/02/07 06:07:36;;;;;;;28.85;26.65;;;;;;;;;;5100121;28;20248;-82
2023/02/07 06:10:04;;;;;;;29.30;27.10;;;;;;;;;;5099342;28;20259;-82
2023/02/07 06:12:32;;;;;;;28.77;26.48;;;;;;;;;;5098898;28;20234;-82
2023/02/07 06:14:59;;;;;;;29.17;27.00;;;;;;;;;;5099515;28;20699;-81
2023/02/07 06:17:26;;;;;;;29.25;27.00;;;;;;;;;;5099644;28;20225;-81
2023/02/07 06:19:53;;;;;;;30.13;27.83;;;;;;;;;;5099159;28;20231;-82
2023/02/07 06:22:20;;;;;;;29.30;27.02;;;;;;;;;;5098756;28;20252;-82
2023/02/07 06:24:53;;;;;;;30.70;28.30;;;;;;;;;;5098716;28;20769;-82
2023/02/07 06:27:20;;;;;;;29.20;27.10;;;;;;;;;;5099229;28;20202;-82
2023/02/07 06:29:48;;;;;;;29.85;27.35;;;;;;;;;;5099058;28;20622;-82
2023/02/07 06:32:16;;;;;;;31.00;28.60;;;;;;;;;;5098929;28;20199;-82
2023/02/07 06:34:43;;;;;;;30.25;27.90;;;;;;;;;;5099243;28;20313;-80
2023/02/07 06:37:09;;;;;;;30.17;27.67;;;;;;;;;;5098274;28;20604;-81
2023/02/07 06:39:36;;;;;;;29.73;27.35;;;;;;;;;;5084764;28;20222;-80
2023/02/07 06:42:04;;;;;;;29.52;27.33;;;;;;;;;;5084447;28;20258;-80
2023/02/07 06:44:31;;;;;;;31.10;28.20;;;;;;;;;;5080327;28;20199;-80
2023/02/07 06:47:00;;;;;;;32.13;29.52;;;;;;;;;;5079846;28;20257;-79
2023/02/07 06:49:27;;;;;;;29.85;27.40;;;;;;;;;;5079441;28;20604;-79
2023/02/07 06:51:54;;;;;;;30.77;28.48;;;;;;;;;;5079265;28;20204;-80
2023/02/07 06:54:21;;;;;;;32.45;29.80;;;;;;;;;;5096885;28;20203;-80
2023/02/07 06:56:48;;;;;;;30.85;28.35;;;;;;;;;;5098532;28;20252;-79
2023/02/07 06:59:15;;;;;;;32.28;29.77;;;;;;;;;;5096908;28;20540;-78
2023/02/07 07:01:42;;;;;;;32.05;29.55;;;;;;;;;;5095644;28;20233;-78
2023/02/07 07:04:11;;;;;;;33.53;30.60;;;;;;;;;;5095036;28;20688;-79
2023/02/07 07:06:38;;;;;;;32.55;29.90;;;;;;;;;;5100597;28;20226;-79
2023/02/07 07:09:05;;;;;;;31.17;28.77;;;;;;;;;;5100292;28;20244;-79
2023/02/07 07:11:32;;;;;;;31.10;28.60;;;;;;;;;;5096946;28;20201;-78
2023/02/07 07:14:01;;;;;;;32.25;29.75;;;;;;;;;;5096225;28;20205;-77
2023/02/07 07:16:28;;;;;;;32.35;29.55;;;;;;;;;;5095889;28;20222;-78
2023/02/07 07:18:55;;;;;;;31.77;29.17;;;;;;;;;;5096057;28;20199;-78
2023/02/07 07:21:25;;;;;;;30.65;28.00;;;;;;;;;;5094901;28;20272;-78
2023/02/07 07:23:52;;;;;;;32.75;30.02;;;;;;;;;;5096150;28;20195;-78
2023/02/07 07:26:19;;;;;;;31.05;28.65;;;;;;;;;;5095410;28;20704;-78
2023/02/07 07:28:48;;;;;;;30.80;28.10;;;;;;;;;;5095946;28;20206;-77
2023/02/07 07:31:15;;;;;;;32.05;29.35;;;;;;;;;;5096198;28;20202;-79
2023/02/07 07:33:42;;;;;;;31.05;28.60;;;;;;;;;;5095113;28;20615;-79
2023/02/07 07:36:09;;;;;;;32.17;29.52;;;;;;;;;;5095758;28;20223;-78
2023/02/07 07:38:38;;;;;;;32.17;29.58;;;;;;;;;;5095738;28;20203;-78
2023/02/07 07:41:05;;;;;;;32.22;29.70;;;;;;;;;;5095008;28;20231;-78
2023/02/07 07:43:32;;;;;;;32.92;30.23;;;;;;;;;;5094528;28;20255;-79
2023/02/07 07:46:00;;;;;;;31.38;28.73;;;;;;;;;;5095816;28;20222;-79
2023/02/07 07:48:27;;;;;;;32.08;29.48;;;;;;;;;;5096204;28;20203;-79
2023/02/07 07:50:54;;;;;;;31.08;28.52;;;;;;;;;;5095889;28;20272;-79
2023/02/07 07:53:21;;;;;;;32.72;30.13;;;;;;;;;;5095119;28;20664;-79
2023/02/07 07:55:50;;;;;;;32.22;29.60;;;;;;;;;;5096181;28;20227;-78
2023/02/07 07:58:18;;;;;;;32.03;29.10;;;;;;;;;;5097312;28;20244;-79
2023/02/07 08:00:46;;;;;;;30.88;28.45;;;;;;;;;;5096707;28;20226;-79
2023/02/07 08:03:13;;;;;;;30.00;27.70;;;;;;;;;;5094916;28;20649;-79
2023/02/07 08:05:40;;;;;;;31.23;28.70;;;;;;;;;;5095332;28;20765;-79
2023/02/07 08:08:07;;;;;;;32.70;30.13;;;;;;;;;;5096114;28;20209;-79
2023/02/07 08:10:34;;;;;;;32.38;29.58;;;;;;;;;;5095990;28;20261;-79
2023/02/07 08:13:03;;;;;;;32.53;29.65;;;;;;;;;;5094424;28;20208;-79
2023/02/07 08:15:30;;;;;;;30.83;28.40;;;;;;;;;;5094863;28;20218;-78
2023/02/07 08:17:57;;;;;;;30.90;28.60;;;;;;;;;;5094838;28;20203;-78
2023/02/07 08:20:24;;;;;;;33.13;30.45;;;;;;;;;;5095089;28;20237;-78
2023/02/07 08:22:52;;;;;;;34.55;31.63;;;;;;;;;;5094521;28;20208;-78
2023/02/07 08:25:19;;;;;;;32.88;30.10;;;;;;;;;;5094920;28;20233;-78
2023/02/07 08:27:46;;;;;;;30.10;27.90;;;;;;;;;;5094896;28;20279;-78
2023/02/07 08:30:17;;;;;;;33.08;30.30;;;;;;;;;;5094750;28;20256;-78
2023/02/07 08:32:44;;;;;;;31.90;29.05;;;;;;;;;;5094286;28;20195;-78
2023/02/07 08:35:11;;;;;;;32.33;29.73;;;;;;;;;;5094768;28;20223;-78
2023/02/07 08:37:38;;;;;;;32.92;30.15;;;;;;;;;;5094646;28;20207;-79
2023/02/07 08:40:06;;;;;;;33.08;30.02;;;;;;;;;;5094967;28;20202;-78
2023/02/07 08:42:33;;;;;;;32.45;29.35;;;;;;;;;;5092969;28;20230;-78
2023/02/07 08:45:00;;;;;;;31.27;28.75;;;;;;;;;;5095255;28;20228;-79
2023/02/07 08:47:28;;;;;;;32.13;29.52;;;;;;;;;;5096606;28;20204;-82
2023/02/07 08:49:55;;;;;;;32.15;29.48;;;;;;;;;;5097206;28;20194;-79
2023/02/07 08:52:23;;;;;;;33.28;30.50;;;;;;;;;;5097063;28;20195;-82
2023/02/07 08:54:50;;;;;;;30.65;28.35;;;;;;;;;;5097747;28;20231;-83
2023/02/07 08:57:21;;;;;;;30.63;28.23;;;;;;;;;;5098110;28;20264;-83
2023/02/07 08:59:48;;;;;;;28.00;25.80;;;;;;;;;;5097985;28;20195;-82
2023/02/07 09:02:15;;;;;;;32.22;29.48;;;;;;;;;;5098734;28;20593;-81
2023/02/07 09:04:44;;;;;;;32.95;29.98;;;;;;;;;;5097492;28;20279;-82
2023/02/07 09:07:11;;;;;;;33.53;30.83;;;;;;;;;;5098367;28;20260;-81
2023/02/07 09:09:38;;;;;;;32.90;30.00;;;;;;;;;;5097656;28;20210;-76
2023/02/07 09:12:06;;;;;;;28.17;26.08;;;;;;;;;;5093070;28;20737;-75
2023/02/07 09:14:33;;;;;;;31.35;28.42;;;;;;;;;;5093220;28;20195;-76
2023/02/07 09:17:00;;;;;;;32.30;29.75;;;;;;;;;;5095235;28;20632;-75
2023/02/07 09:19:27;;;;;;;31.92;29.42;;;;;;;;;;5093374;28;20203;-75
2023/02/07 09:21:55;;;;;;;31.02;28.33;;;;;;;;;;5093028;28;20225;-74
2023/02/07 09:24:22;;;;;;;32.95;30.25;;;;;;;;;;5093466;28;20198;-76
2023/02/07 09:26:49;;;;;;;30.65;28.27;;;;;;;;;;5093562;28;20262;-76
2023/02/07 09:29:16;;;;;;;32.25;29.65;;;;;;;;;;5092634;28;20255;-74
2023/02/07 09:31:44;;;;;;;34.45;31.35;;;;;;;;;;5092195;28;20203;-75
2023/02/07 09:34:12;;;;;;;31.10;28.50;;;;;;;;;;5094789;28;20250;-76
2023/02/07 09:36:39;;;;;;;33.42;30.48;;;;;;;;;;5095372;28;20269;-78
2023/02/07 09:39:07;;;;;;;34.35;31.25;;;;;;;;;;5096932;28;20207;-80
2023/02/07 09:41:39;;;;;;;31.85;29.27;;;;;;;;;;5095564;28;20246;-77
2023/02/07 09:44:10;;;;;;;29.92;27.40;;;;;;;;;;5095631;28;20187;-88
2023/02/07 09:46:39;;;;;;;34.08;31.27;;;;;;;;;;5095344;28;20220;-84
2023/02/07 09:49:11;;;;;;;29.85;27.40;;;;;;;;;;5095340;28;20694;-78
2023/02/07 09:51:39;;;;;;;31.45;28.85;;;;;;;;;;5093955;28;20193;-78
2023/02/07 09:54:12;;;;;;;31.77;29.40;;;;;;;;;;5092879;28;20262;-78
2023/02/07 09:56:40;;;;;;;33.97;30.98;;;;;;;;;;5096956;28;20224;-85
2023/02/07 09:59:18;;;;;;;31.88;29.40;;;;;;;;;;5094330;28;20202;-78
2023/02/07 10:01:47;;;;;;;33.05;30.40;;;;;;;;;;5093412;28;20230;-78
2023/02/07 10:04:26;;;;;;;31.40;29.00;;;;;;;;;;5093140;28;20216;-78
2023/02/07 10:06:55;;;;;;;32.70;30.10;;;;;;;;;;5092884;28;20207;-79
2023/02/07 10:09:25;;;;;;;30.77;28.38;;;;;;;;;;5094723;28;20212;-79
2023/02/07 10:11:53;;;;;;;30.98;28.63;;;;;;;;;;5095769;28;20611;-81
2023/02/07 10:14:35;;;;;;;30.95;28.40;;;;;;;;;;5095373;28;20213;-75
2023/02/07 10:17:10;;;;;;;30.30;27.90;;;;;;;;;;5092665;28;20204;-76
2023/02/07 10:19:44;;;;;;;30.30;28.00;;;;;;;;;;5093469;28;20195;-75
2023/02/07 10:22:16;;;;;;;31.38;28.55;;;;;;;;;;5092536;28;20221;-74
2023/02/07 10:25:08;;;;;;;30.67;28.30;;;;;;;;;;5092753;28;20574;-75
2023/02/07 10:27:37;;;;;;;30.02;27.70;;;;;;;;;;5092592;28;20208;-74
2023/02/07 10:30:09;;;;;;;30.05;27.65;;;;;;;;;;5092663;28;20614;-74
2023/02/07 10:32:37;;;;;;;31.80;29.30;;;;;;;;;;5092450;28;20286;-74
2023/02/07 10:35:11;;;;;;;30.90;28.50;;;;;;;;;;5092695;28;20219;-75
2023/02/07 10:37:39;;;;;;;30.10;27.63;;;;;;;;;;5092267;28;20207;-75
2023/02/07 10:40:12;;;;;;;31.60;29.23;;;;;;;;;;5095403;28;20204;-74
2023/02/07 10:42:39;;;;;;;31.60;29.17;;;;;;;;;;5095624;28;20258;-75
2023/02/07 10:45:07;;;;;;;31.10;28.80;;;;;;;;;;5096047;28;20223;-75
2023/02/07 10:47:36;;;;;;;29.45;27.25;;;;;;;;;;5096513;28;20212;-75
2023/02/07 10:50:07;;;;;;;29.73;27.55;;;;;;;;;;5096480;28;20252;-75
2023/02/07 10:52:37;;;;;;;30.17;28.00;;;;;;;;;;5095657;28;20626;-74
2023/02/07 10:55:05;;;;;;;29.35;27.13;;;;;;;;;;5095504;28;20761;-75
2023/02/07 10:57:34;;;;;;;30.45;28.15;;;;;;;;;;5096448;28;20625;-74
2023/02/07 11:00:04;;;;;;;30.08;27.83;;;;;;;;;;5096042;28;20673;-75
2023/02/07 11:02:38;;;;;;;29.30;27.10;;;;;;;;;;5095292;28;20228;-76
2023/02/07 11:05:06;;;;;;;29.13;27.02;;;;;;;;;;5096594;28;20223;-82
2023/02/07 11:07:33;;;;;;;28.52;26.52;;;;;;;;;;5096300;28;20724;-74
2023/02/07 11:10:14;;;;;;;29.15;27.05;;;;;;;;;;5095871;28;20209;-75
2023/02/07 11:12:47;;;;;;;28.80;26.60;;;;;;;;;;5095435;28;20187;-75
2023/02/07 11:15:16;;;;;;;29.50;27.23;;;;;;;;;;5096189;28;20232;-75
2023/02/07 11:17:48;;;;;;;29.63;27.52;;;;;;;;;;5096009;28;20282;-75
2023/02/07 11:20:19;;;;;;;28.85;26.80;;;;;;;;;;5095386;28;20221;-75
2023/02/07 11:22:46;;;;;;;29.48;27.48;;;;;;;;;;5094930;28;20670;-74
2023/02/07 11:25:13;;;;;;;29.27;27.17;;;;;;;;;;5095401;28;20710;-75
2023/02/07 11:27:41;;;;;;;29.10;27.00;;;;;;;;;;5096157;28;20612;-75
2023/02/07 11:30:15;;;;;;;28.65;26.60;;;;;;;;;;5094953;28;20205;-75
2023/02/07 11:32:42;;;;;;;29.23;27.23;;;;;;;;;;5094874;28;20208;-74
2023/02/07 11:35:10;;;;;;;29.90;27.77;;;;;;;;;;5095469;28;20561;-74
2023/02/07 11:37:40;;;;;;;30.05;27.85;;;;;;;;;;5095413;28;20251;-75
2023/02/07 11:40:20;;;;;;;29.27;26.88;;;;;;;;;;5095121;28;20620;-75
2023/02/07 11:42:48;;;;;;;27.13;25.20;;;;;;;;;;5094729;28;20228;-74
2023/02/07 11:45:18;;;;;;;28.73;26.83;;;;;;;;;;5094590;28;20276;-75
2023/02/07 11:47:47;;;;;;;30.45;28.25;;;;;;;;;;5095650;28;20188;-75
2023/02/07 11:50:19;;;;;;;27.95;26.10;;;;;;;;;;5094813;28;20201;-74
2023/02/07 11:52:50;;;;;;;27.67;25.77;;;;;;;;;;5094252;28;20495;-74
2023/02/07 11:55:21;;;;;;;26.27;24.58;;;;;;;;;;5094992;28;20631;-74
2023/02/07 11:57:49;;;;;;;26.77;24.85;;;;;;;;;;5095205;28;20225;-74
2023/02/07 12:00:20;;;;;;;27.58;25.77;;;;;;;;;;5095111;28;20214;-74
2023/02/07 12:02:51;;;;;;;26.23;24.67;;;;;;;;;;5094495;28;20571;-75
2023/02/07 12:05:20;;;;;;;26.05;24.45;;;;;;;;;;5094273;28;20229;-74
2023/02/07 12:07:49;;;;;;;27.20;25.40;;;;;;;;;;5094574;28;20220;-75
2023/02/07 12:10:21;;;;;;;26.77;24.92;;;;;;;;;;5094552;28;20210;-74
2023/02/07 12:12:50;;;;;;;25.88;24.20;;;;;;;;;;5094348;28;20201;-74
2023/02/07 12:15:21;;;;;;;28.33;26.38;;;;;;;;;;5094784;28;20224;-75
2023/02/07 12:17:53;;;;;;;26.17;24.45;;;;;;;;;;5094881;28;20193;-75
2023/02/07 12:20:23;;;;;;;27.42;25.73;;;;;;;;;;5094696;28;20260;-74
2023/02/07 12:22:53;;;;;;;27.25;25.45;;;;;;;;;;5093784;28;20286;-79
2023/02/07 12:25:21;;;;;;;26.67;24.98;;;;;;;;;;5094455;28;20295;-75
2023/02/07 12:27:50;;;;;;;26.98;25.17;;;;;;;;;;5094626;28;20217;-76
2023/02/07 12:30:21;;;;;;;26.05;24.35;;;;;;;;;;5094550;28;20295;-75
2023/02/07 12:32:53;;;;;;;26.45;24.65;;;;;;;;;;5093597;28;20208;-76
2023/02/07 12:35:23;;;;;;;27.77;25.77;;;;;;;;;;5094290;28;20265;-73
2023/02/07 12:37:53;;;;;;;27.92;26.13;;;;;;;;;;5095031;28;20207;-75
2023/02/07 12:40:25;;;;;;;26.10;24.40;;;;;;;;;;5094308;28;20198;-74
2023/02/07 12:42:56;;;;;;;27.05;25.25;;;;;;;;;;5093707;28;20212;-75
2023/02/07 12:45:29;;;;;;;25.92;24.17;;;;;;;;;;5093822;28;20226;-75
2023/02/07 12:47:58;;;;;;;26.00;24.20;;;;;;;;;;5094637;28;20249;-75
2023/02/07 12:50:33;;;;;;;27.15;25.17;;;;;;;;;;5094062;28;20265;-76
2023/02/07 12:53:07;;;;;;;27.55;25.77;;;;;;;;;;5093665;28;20202;-75
2023/02/07 12:55:39;;;;;;;27.83;26.02;;;;;;;;;;5093157;28;20694;-76
2023/02/07 12:58:13;;;;;;;28.23;26.38;;;;;;;;;;5094764;28;20262;-75
2023/02/07 13:00:47;;;;;;;27.95;26.25;;;;;;;;;;5094214;28;20248;-75
2023/02/07 13:03:20;;;;;;;27.73;25.63;;;;;;;;;;5092665;28;20274;-75
2023/02/07 13:05:53;;;;;;;27.60;25.75;;;;;;;;;;5094986;28;20226;-76
2023/02/07 13:08:25;;;;;;;27.85;25.95;;;;;;;;;;5103512;28;20193;-87
2023/02/07 13:10:57;;;;;;;26.52;24.77;;;;;;;;;;5101551;28;20206;-87
2023/02/07 13:13:26;;;;;;;27.30;25.50;;;;;;;;;;5103319;28;20193;-87
2023/02/07 13:15:58;;;;;;;26.02;24.23;;;;;;;;;;5103309;28;20229;-87
2023/02/07 13:18:29;;;;;;;27.65;25.90;;;;;;;;;;5103191;28;20636;-87
2023/02/07 13:21:00;;;;;;;29.10;27.30;;;;;;;;;;5104259;28;20193;-87
2023/02/07 13:23:28;;;;;;;29.35;27.45;;;;;;;;;;5102331;28;20206;-87
2023/02/07 13:25:57;;;;;;;26.63;24.92;;;;;;;;;;5103119;28;20278;-87
2023/02/07 13:28:26;;;;;;;26.25;24.58;;;;;;;;;;5104375;28;20226;-87
2023/02/07 13:30:56;;;;;;;26.33;24.50;;;;;;;;;;5103629;28;20272;-87
2023/02/07 13:33:29;;;;;;;26.85;25.25;;;;;;;;;;5103159;28;20259;-88
2023/02/07 13:35:58;;;;;;;28.00;26.25;;;;;;;;;;5104255;28;20251;-87
2023/02/07 13:38:34;;;;;;;27.33;25.33;;;;;;;;;;5104063;28;20205;-87
2023/02/07 13:41:03;;;;;;;27.85;25.85;;;;;;;;;;5103513;28;20209;-87
2023/02/07 13:43:38;;;;;;;26.05;24.15;;;;;;;;;;5102461;28;20252;-87
2023/02/07 13:46:12;;;;;;;26.10;24.20;;;;;;;;;;5104091;28;20225;-87
2023/02/07 13:48:43;;;;;;;26.50;24.70;;;;;;;;;;5103329;28;20206;-87
2023/02/07 13:51:13;;;;;;;27.15;25.35;;;;;;;;;;5082885;28;20261;-87
2023/02/07 13:53:44;;;;;;;26.85;24.95;;;;;;;;;;5082799;28;20199;-87
2023/02/07 13:59:37;;;;;;;25.42;23.83;;;;;;;;;;5082376;28;20232;-87
2023/02/07 14:01:51;;;;;;;26.42;24.60;;;;;;;;;;5082786;28;20213;-87
2023/02/07 14:04:20;;;;;;;25.52;23.83;;;;;;;;;;5082352;28;20229;-87
2023/02/07 14:06:56;;;;;;;27.67;25.77;;;;;;;;;;5083941;28;20200;-87
2023/02/07 14:09:28;;;;;;;25.42;23.73;;;;;;;;;;5083885;28;20628;-87
2023/02/07 14:11:57;;;;;;;27.40;25.60;;;;;;;;;;5083544;28;20202;-87
2023/02/07 14:14:25;;;;;;;26.80;25.10;;;;;;;;;;5085135;28;20202;-87
2023/02/07 14:16:53;;;;;;;25.65;23.85;;;;;;;;;;5086123;28;20199;-80
2023/02/07 14:19:41;;;;;;;26.05;24.42;;;;;;;;;;5088400;28;20214;-80
2023/02/07 14:22:17;;;;;;;26.23;24.55;;;;;;;;;;5086727;28;20210;-80
2023/02/07 14:24:49;;;;;;;26.40;24.40;;;;;;;;;;5088708;28;20274;-80
2023/02/07 14:27:26;;;;;;;25.63;23.83;;;;;;;;;;5089489;28;20264;-80
2023/02/07 14:29:55;;;;;;;26.60;24.80;;;;;;;;;;5088971;28;20227;-80